Time;durP1;ratioP1;P1;durP2;ratioP2;P2;SDS_P1;SDS_P2;PMS_P1;PMS_P2;Temp;Humidity;BMP_temperature;BMP_pressure;BME280_temperature;BME280_humidity;BME280_pressure;Samples;Min_cycle;Max_cycle;Signal;HPM_P1;HPM_P2
2022/05/18 00:00:23;;;;;;;10.95;4.07;;;18.20;99.90;;;;;;5018378;28;20076;-86
2022/05/18 00:02:49;;;;;;;7.05;3.85;;;18.60;99.90;;;;;;5043380;28;20036;-87
2022/05/18 00:05:15;;;;;;;6.68;3.20;;;18.00;99.90;;;;;;5048447;28;20473;-87
2022/05/18 00:07:41;;;;;;;8.60;4.00;;;18.20;99.90;;;;;;5021896;28;20064;-85
2022/05/18 00:10:07;;;;;;;8.73;4.03;;;18.00;99.90;;;;;;5046595;28;20045;-85
2022/05/18 00:12:33;;;;;;;7.22;3.65;;;18.00;99.90;;;;;;5029382;28;20265;-87
2022/05/18 00:14:59;;;;;;;6.78;3.45;;;17.90;99.90;;;;;;5029000;28;20502;-87
2022/05/18 00:17:27;;;;;;;9.35;3.85;;;17.90;99.90;;;;;;5040724;28;20069;-86
2022/05/18 00:19:52;;;;;;;5.35;3.75;;;17.90;99.90;;;;;;5046699;28;20099;-86
2022/05/18 00:22:18;;;;;;;6.78;3.83;;;18.50;99.90;;;;;;5013739;28;20102;-86
2022/05/18 00:24:43;;;;;;;5.13;3.35;;;17.80;99.90;;;;;;5029538;28;20128;-84
2022/05/18 00:27:09;;;;;;;4.40;3.30;;;17.70;99.90;;;;;;5025899;28;20454;-82
2022/05/18 00:29:34;;;;;;;6.15;3.75;;;17.80;99.90;;;;;;5030398;28;20059;-84
2022/05/18 00:32:01;;;;;;;11.10;4.65;;;17.60;99.90;;;;;;5019975;28;20119;-88
2022/05/18 00:34:26;;;;;;;5.03;3.10;;;17.60;99.90;;;;;;5030958;28;20556;-82
2022/05/18 00:36:52;;;;;;;5.70;3.58;;;18.40;99.90;;;;;;5047977;28;20048;-84
2022/05/18 00:39:19;;;;;;;6.97;3.38;;;17.60;99.90;;;;;;5036061;28;20132;-85
2022/05/18 00:41:45;;;;;;;5.45;4.05;;;18.10;99.90;;;;;;5028713;28;20460;-86
2022/05/18 00:44:10;;;;;;;5.18;4.20;;;17.60;99.90;;;;;;5029500;28;20339;-84
2022/05/18 00:46:36;;;;;;;7.10;3.45;;;17.20;99.90;;;;;;5039105;28;20588;-85
2022/05/18 00:49:06;;;;;;;7.78;3.83;;;17.60;99.90;;;;;;5048541;28;20040;-86
2022/05/18 00:51:39;;;;;;;4.93;3.67;;;17.60;99.90;;;;;;5046306;28;20106;-85
2022/05/18 00:54:04;;;;;;;7.65;4.20;;;17.50;99.90;;;;;;5042994;28;20493;-84
2022/05/18 00:56:47;;;;;;;6.03;4.18;;;17.50;99.90;;;;;;5024451;28;20327;-84
2022/05/18 00:59:19;;;;;;;7.38;3.80;;;17.50;99.90;;;;;;5016209;28;20048;-84
2022/05/18 01:01:45;;;;;;;6.70;4.32;;;17.50;99.90;;;;;;5040684;28;20037;-86
2022/05/18 01:04:13;;;;;;;5.30;3.83;;;17.40;99.90;;;;;;5043358;28;20481;-83
2022/05/18 01:06:44;;;;;;;7.43;4.05;;;17.40;99.90;;;;;;5024801;28;20040;-85
2022/05/18 01:09:25;;;;;;;5.78;3.95;;;17.40;99.90;;;;;;5019929;28;20625;-85
2022/05/18 01:11:50;;;;;;;10.18;4.75;;;17.40;99.90;;;;;;5041147;28;20048;-84
2022/05/18 01:14:45;;;;;;;5.35;4.07;;;17.70;99.90;;;;;;5010474;28;20095;-84
2022/05/18 01:17:19;;;;;;;7.35;3.72;;;17.30;99.90;;;;;;5018268;28;20050;-86
2022/05/18 01:19:47;;;;;;;;;;;17.70;99.90;;;;;;5020978;28;20385;-85
2022/05/18 01:22:21;;;;;;;4.38;3.60;;;17.20;99.90;;;;;;5025530;28;19921;-83
2022/05/18 01:25:18;;;;;;;5.63;4.18;;;17.10;99.90;;;;;;5022105;28;20054;-85
2022/05/18 01:27:44;;;;;;;7.40;4.40;;;17.10;99.90;;;;;;5041973;28;20045;-85
2022/05/18 01:30:11;;;;;;;6.45;4.20;;;17.00;99.90;;;;;;5037128;28;20123;-86
2022/05/18 01:32:39;;;;;;;7.30;3.85;;;17.10;99.90;;;;;;5023112;28;20076;-85
2022/05/18 01:35:05;;;;;;;6.63;4.18;;;17.10;99.90;;;;;;5031706;28;20118;-86
2022/05/18 01:37:31;;;;;;;6.57;3.80;;;17.10;99.90;;;;;;5022361;28;20045;-86
2022/05/18 01:39:59;;;;;;;6.45;4.20;;;17.10;99.90;;;;;;5046220;28;20036;-86
2022/05/18 01:42:31;;;;;;;4.47;3.83;;;17.00;99.90;;;;;;5040976;28;20515;-86
2022/05/18 01:44:57;;;;;;;5.95;3.55;;;17.70;99.90;;;;;;5020428;28;20049;-84
2022/05/18 01:47:22;;;;;;;6.00;4.13;;;17.50;99.90;;;;;;5047100;28;20418;-83
2022/05/18 01:49:51;;;;;;;6.38;3.88;;;17.10;99.90;;;;;;5026667;28;20041;-84
2022/05/18 01:52:17;;;;;;;6.05;4.18;;;18.00;99.90;;;;;;5037102;28;20033;-85
2022/05/18 01:54:46;;;;;;;7.95;4.40;;;17.10;99.90;;;;;;5020157;28;20046;-86
2022/05/18 01:57:12;;;;;;;9.90;5.18;;;17.10;99.90;;;;;;5019689;28;20045;-85
2022/05/18 01:59:39;;;;;;;4.47;4.07;;;16.90;99.90;;;;;;5047290;28;20048;-84
2022/05/18 02:02:06;;;;;;;6.03;4.00;;;17.50;99.90;;;;;;5024415;28;20029;-84
2022/05/18 02:04:35;;;;;;;6.82;4.63;;;17.40;99.90;;;;;;5021765;28;20049;-83
2022/05/18 02:07:04;;;;;;;4.88;3.55;;;16.90;99.90;;;;;;5044019;28;20045;-84
2022/05/18 02:09:30;;;;;;;8.85;4.28;;;17.90;99.90;;;;;;5041150;28;20409;-84
2022/05/18 02:11:56;;;;;;;8.13;5.15;;;16.90;99.90;;;;;;5022188;28;20511;-80
2022/05/18 02:14:22;;;;;;;7.90;4.50;;;16.90;99.90;;;;;;5048762;28;20480;-85
2022/05/18 02:16:49;;;;;;;6.45;4.60;;;16.90;99.90;;;;;;5019502;28;20132;-85
2022/05/18 02:19:16;;;;;;;7.35;4.00;;;17.10;99.90;;;;;;5044996;28;20041;-82
2022/05/18 02:21:42;;;;;;;5.30;4.05;;;16.90;99.90;;;;;;5025668;28;20048;-85
2022/05/18 02:24:08;;;;;;;7.78;3.67;;;17.50;99.90;;;;;;5046918;28;20052;-83
2022/05/18 02:26:34;;;;;;;10.02;4.35;;;16.90;99.90;;;;;;5024942;28;20405;-84
2022/05/18 02:29:00;;;;;;;8.35;5.45;;;16.90;99.90;;;;;;5027605;28;20053;-84
2022/05/18 02:31:25;;;;;;;7.35;4.22;;;16.80;99.90;;;;;;5032071;28;20045;-85
2022/05/18 02:33:51;;;;;;;4.35;3.78;;;16.80;99.90;;;;;;5013178;28;20127;-86
2022/05/18 02:36:16;;;;;;;4.90;4.00;;;16.90;99.90;;;;;;5045600;28;20033;-85
2022/05/18 02:38:42;;;;;;;6.65;3.88;;;17.90;99.90;;;;;;5027247;28;20404;-83
2022/05/18 02:41:09;;;;;;;8.02;4.13;;;16.90;99.90;;;;;;5021901;28;20041;-84
2022/05/18 02:43:38;;;;;;;6.90;3.97;;;16.80;99.90;;;;;;5045165;28;20493;-85
2022/05/18 02:46:05;;;;;;;6.03;4.43;;;17.20;99.90;;;;;;5028567;28;20135;-84
2022/05/18 02:48:31;;;;;;;6.45;3.72;;;16.80;99.90;;;;;;5026337;28;20179;-83
2022/05/18 02:50:56;;;;;;;6.72;3.85;;;17.70;99.90;;;;;;5039468;28;20116;-85
2022/05/18 02:53:22;;;;;;;7.43;4.85;;;16.70;99.90;;;;;;5043303;28;20590;-85
2022/05/18 02:56:06;;;;;;;9.20;4.32;;;16.60;99.90;;;;;;5026936;28;20045;-83
2022/05/18 02:58:37;;;;;;;8.30;4.23;;;16.60;99.90;;;;;;5024743;28;20060;-82
2022/05/18 03:01:08;;;;;;;6.15;4.25;;;16.60;99.90;;;;;;5045443;28;20676;-85
2022/05/18 03:03:35;;;;;;;5.55;4.07;;;16.60;99.90;;;;;;5044740;28;20080;-84
2022/05/18 03:06:03;;;;;;;8.38;3.90;;;16.60;99.90;;;;;;5037039;28;20087;-86
2022/05/18 03:08:33;;;;;;;6.05;4.47;;;16.60;99.90;;;;;;5039148;28;20064;-86
2022/05/18 03:10:58;;;;;;;10.55;4.88;;;16.50;99.90;;;;;;5029168;28;20052;-84
2022/05/18 03:13:24;;;;;;;6.72;4.28;;;16.50;99.90;;;;;;5046833;28;20045;-84
2022/05/18 03:15:49;;;;;;;6.47;3.72;;;16.40;99.90;;;;;;5046407;28;20059;-85
2022/05/18 03:18:15;;;;;;;7.35;4.25;;;16.40;99.90;;;;;;5007427;28;20038;-85
2022/05/18 03:23:33;;;;;;;7.45;3.70;;;16.40;99.90;;;;;;5025247;28;20136;-86
2022/05/18 03:26:03;;;;;;;6.20;3.78;;;17.10;99.90;;;;;;5029360;28;20084;-84
2022/05/18 03:28:29;;;;;;;6.28;4.35;;;16.40;99.90;;;;;;5024175;28;20378;-82
2022/05/18 03:30:55;;;;;;;4.65;4.05;;;16.30;99.90;;;;;;5028317;28;20132;-85
2022/05/18 03:33:22;;;;;;;7.90;4.43;;;16.40;99.90;;;;;;5044033;28;20053;-84
2022/05/18 03:35:48;;;;;;;9.35;4.93;;;17.00;99.90;;;;;;5040643;28;20068;-85
2022/05/18 03:38:14;;;;;;;6.30;4.07;;;17.50;99.90;;;;;;5023917;28;20052;-86
2022/05/18 03:40:40;;;;;;;8.65;4.47;;;16.30;99.90;;;;;;5027511;28;20470;-85
2022/05/18 03:43:06;;;;;;;7.00;4.78;;;16.30;99.90;;;;;;5020173;28;20532;-86
2022/05/18 03:45:33;;;;;;;7.90;4.57;;;16.20;99.90;;;;;;5024718;28;20037;-85
2022/05/18 03:47:59;;;;;;;8.82;4.40;;;16.20;99.90;;;;;;5033107;28;20050;-84
2022/05/18 03:50:28;;;;;;;7.03;4.82;;;16.10;99.90;;;;;;5017842;28;20075;-85
2022/05/18 03:52:55;;;;;;;6.10;4.30;;;16.10;99.90;;;;;;5010901;28;20476;-83
2022/05/18 03:55:20;;;;;;;7.05;4.97;;;16.10;99.90;;;;;;5038735;28;20501;-84
2022/05/18 03:57:46;;;;;;;7.22;5.10;;;16.00;99.90;;;;;;5029949;28;20368;-84
2022/05/18 04:00:13;;;;;;;8.65;4.82;;;16.00;99.90;;;;;;5006005;28;20072;-84
2022/05/18 04:02:40;;;;;;;6.47;4.10;;;16.00;99.90;;;;;;5006976;28;20037;-84
2022/05/18 04:05:07;;;;;;;4.78;4.28;;;16.90;99.90;;;;;;5020276;28;20048;-85
2022/05/18 04:07:33;;;;;;;8.20;5.13;;;15.90;99.90;;;;;;5013696;28;20037;-86
2022/05/18 04:09:59;;;;;;;6.90;4.78;;;15.90;99.90;;;;;;5010189;28;20083;-84
2022/05/18 04:12:27;;;;;;;7.05;4.40;;;16.00;99.90;;;;;;5016976;28;20057;-84
2022/05/18 04:14:54;;;;;;;4.95;4.35;;;15.90;99.90;;;;;;5026943;28;20068;-83
2022/05/18 04:17:23;;;;;;;6.68;4.43;;;15.90;99.90;;;;;;5028590;28;20405;-85
2022/05/18 04:19:49;;;;;;;8.50;4.82;;;15.90;99.90;;;;;;5019082;28;20065;-81
2022/05/18 04:22:15;;;;;;;7.15;4.57;;;15.90;99.90;;;;;;5028993;28;20033;-85
2022/05/18 04:24:41;;;;;;;6.93;4.38;;;16.00;99.90;;;;;;5039742;28;20118;-85
2022/05/18 04:27:06;;;;;;;7.00;5.07;;;15.90;99.90;;;;;;5027524;28;20492;-84
2022/05/18 04:29:32;;;;;;;8.68;4.68;;;16.00;99.90;;;;;;5027910;28;20043;-83
2022/05/18 04:31:58;;;;;;;8.98;7.90;;;16.40;99.90;;;;;;4991112;28;20037;-83
2022/05/18 04:34:25;;;;;;;6.05;4.90;;;16.50;99.90;;;;;;5042086;28;20041;-84
2022/05/18 04:36:51;;;;;;;7.40;4.93;;;16.10;99.90;;;;;;5025718;28;20049;-86
2022/05/18 04:39:17;;;;;;;13.43;9.68;;;16.20;99.90;;;;;;5016711;28;21384;-85
2022/05/18 04:41:43;;;;;;;7.82;5.30;;;16.00;99.90;;;;;;5009008;28;20416;-83
2022/05/18 04:44:08;;;;;;;8.77;5.30;;;16.10;99.90;;;;;;5021706;28;20044;-83
2022/05/18 04:46:34;;;;;;;6.00;4.72;;;16.10;99.90;;;;;;5042609;28;20045;-81
2022/05/18 04:49:00;;;;;;;7.57;4.72;;;16.10;99.90;;;;;;5045245;28;20143;-84
2022/05/18 04:51:26;;;;;;;7.35;5.25;;;16.10;99.90;;;;;;5027670;28;20049;-83
2022/05/18 04:53:51;;;;;;;8.63;5.32;;;16.20;99.90;;;;;;5029024;28;20071;-82
2022/05/18 04:56:17;;;;;;;9.70;4.78;;;16.20;99.90;;;;;;5044253;28;20045;-80
2022/05/18 04:58:42;;;;;;;8.75;5.25;;;16.20;99.90;;;;;;5009757;28;20504;-84
2022/05/18 05:01:09;;;;;;;12.68;5.75;;;16.20;99.90;;;;;;5040496;28;20412;-82
2022/05/18 05:03:36;;;;;;;6.20;4.88;;;16.30;99.90;;;;;;5027940;28;20048;-81
2022/05/18 05:06:03;;;;;;;7.05;5.45;;;16.30;99.90;;;;;;5028832;28;20059;-82
2022/05/18 05:08:29;;;;;;;9.15;5.47;;;16.30;99.90;;;;;;5024931;28;20895;-82
2022/05/18 05:10:56;;;;;;;7.63;5.55;;;16.30;99.90;;;;;;5042469;28;20037;-78
2022/05/18 05:13:22;;;;;;;6.53;5.10;;;16.30;99.90;;;;;;5017711;28;20045;-82
2022/05/18 05:15:50;;;;;;;9.10;5.18;;;17.10;99.90;;;;;;5026310;28;20061;-83
2022/05/18 05:18:16;;;;;;;6.78;5.70;;;16.40;99.90;;;;;;4343693;28;10000684;-82
2022/05/18 05:20:41;;;;;;;8.75;5.82;;;16.40;99.90;;;;;;5040728;28;20052;-82
2022/05/18 05:23:07;;;;;;;7.13;5.25;;;16.50;99.90;;;;;;5029164;28;20056;-82
2022/05/18 05:25:33;;;;;;;13.48;5.75;;;16.40;99.90;;;;;;5015055;28;20040;-83
2022/05/18 05:27:58;;;;;;;8.60;5.85;;;16.50;99.90;;;;;;5021220;28;20123;-83
2022/05/18 05:30:24;;;;;;;15.32;8.80;;;16.50;99.90;;;;;;5005039;28;20049;-81
2022/05/18 05:32:50;;;;;;;12.07;6.72;;;16.80;99.90;;;;;;5045077;28;20052;-84
2022/05/18 05:35:16;;;;;;;8.73;6.28;;;16.60;99.90;;;;;;5019367;28;20074;-82
2022/05/18 05:37:41;;;;;;;7.63;6.65;;;16.60;99.90;;;;;;5041834;28;20403;-81
2022/05/18 05:40:07;;;;;;;10.73;7.13;;;16.70;99.90;;;;;;5041900;28;20068;-82
2022/05/18 05:42:33;;;;;;;9.50;6.90;;;16.70;99.90;;;;;;5037806;28;20037;-85
2022/05/18 05:44:59;;;;;;;9.52;7.28;;;16.70;99.90;;;;;;5022701;28;20055;-78
2022/05/18 05:47:24;;;;;;;12.63;7.18;;;16.80;99.90;;;;;;5017340;28;20085;-81
2022/05/18 05:49:50;;;;;;;8.73;6.97;;;16.90;99.90;;;;;;5044426;28;20079;-86
2022/05/18 05:52:15;;;;;;;9.10;7.18;;;16.90;99.90;;;;;;5035752;28;20488;-84
2022/05/18 05:54:43;;;;;;;9.10;7.32;;;17.00;99.90;;;;;;5040102;28;20491;-81
2022/05/18 05:57:09;;;;;;;10.65;7.78;;;17.00;99.90;;;;;;5029603;28;20059;-81
2022/05/18 05:59:36;;;;;;;10.90;7.82;;;17.10;99.90;;;;;;5042531;28;20127;-81
2022/05/18 06:02:04;;;;;;;11.80;7.60;;;17.10;99.90;;;;;;5023496;28;20040;-81
2022/05/18 06:04:32;;;;;;;10.93;8.10;;;17.20;99.90;;;;;;5021006;28;20574;-81
2022/05/18 06:06:57;;;;;;;9.95;7.50;;;17.50;99.90;;;;;;5021242;28;20048;-81
2022/05/18 06:09:23;;;;;;;10.57;7.90;;;17.30;99.90;;;;;;5038621;28;20041;-82
2022/05/18 06:11:50;;;;;;;13.50;8.80;;;17.30;99.90;;;;;;5043435;28;20037;-83
2022/05/18 06:14:16;;;;;;;12.98;8.55;;;17.40;99.90;;;;;;5022006;28;20655;-82
2022/05/18 06:16:41;;;;;;;12.18;7.68;;;17.40;99.90;;;;;;5020179;28;20037;-82
2022/05/18 06:19:08;;;;;;;10.05;8.13;;;17.40;99.90;;;;;;5046402;28;20547;-82
2022/05/18 06:21:33;;;;;;;16.38;9.45;;;17.50;99.90;;;;;;5018126;28;20049;-73
2022/05/18 06:23:59;;;;;;;13.27;8.73;;;17.50;99.90;;;;;;5042562;28;20060;-74
2022/05/18 06:26:26;;;;;;;21.02;7.82;;;17.60;99.90;;;;;;5046798;28;20049;-74
2022/05/18 06:28:52;;;;;;;13.20;8.70;;;17.90;99.90;;;;;;5032216;28;20385;-80
2022/05/18 06:31:17;;;;;;;17.40;11.40;;;17.80;99.90;;;;;;5042951;28;20128;-72
2022/05/18 06:33:43;;;;;;;113.18;16.23;;;17.80;99.90;;;;;;5043143;28;20117;-74
2022/05/18 06:36:09;;;;;;;14.80;9.13;;;17.80;99.90;;;;;;5004441;28;20321;-74
2022/05/18 06:38:34;;;;;;;17.83;9.57;;;18.10;99.90;;;;;;5024932;28;20314;-73
2022/05/18 06:43:44;;;;;;;13.70;9.35;;;18.10;99.90;;;;;;5038949;28;20068;-73
2022/05/18 06:46:10;;;;;;;27.98;10.10;;;18.20;99.90;;;;;;5026260;28;20029;-73
2022/05/18 06:48:35;;;;;;;21.67;10.10;;;18.50;99.90;;;;;;5028598;28;20041;-74
2022/05/18 06:51:01;;;;;;;16.88;9.40;;;18.30;99.90;;;;;;5043978;28;20488;-75
2022/05/18 06:53:27;;;;;;;14.82;9.85;;;18.40;99.90;;;;;;5045608;28;20079;-73
2022/05/18 06:55:52;;;;;;;17.40;10.65;;;18.40;99.90;;;;;;5030951;28;20037;-83
2022/05/18 06:58:19;;;;;;;11.32;9.95;;;18.50;99.90;;;;;;5035243;28;20116;-82
2022/05/18 07:00:45;;;;;;;12.65;9.43;;;18.50;99.90;;;;;;5014757;28;20060;-84
2022/05/18 07:03:11;;;;;;;13.82;10.77;;;18.60;99.90;;;;;;5022312;28;20049;-82
2022/05/18 07:05:38;;;;;;;12.52;9.77;;;18.70;99.90;;;;;;5022718;28;20076;-85
2022/05/18 07:08:04;;;;;;;17.60;10.65;;;18.70;99.90;;;;;;5031244;28;20075;-83
2022/05/18 07:10:30;;;;;;;13.45;10.70;;;18.80;99.90;;;;;;5031206;28;20076;-82
2022/05/18 07:12:56;;;;;;;17.50;10.88;;;18.90;99.90;;;;;;5029483;28;20546;-81
2022/05/18 07:15:22;;;;;;;16.38;10.55;;;19.00;99.90;;;;;;5029014;28;20356;-82
2022/05/18 07:17:47;;;;;;;13.82;10.18;;;19.70;99.90;;;;;;5027721;28;20045;-84
2022/05/18 07:20:13;;;;;;;10.02;8.25;;;19.20;99.90;;;;;;5028415;28;20040;-86
2022/05/18 07:22:38;;;;;;;13.40;8.93;;;19.20;99.90;;;;;;5047240;28;20042;-85
2022/05/18 07:25:04;;;;;;;11.75;7.53;;;19.30;99.90;;;;;;5022988;28;20041;-74
2022/05/18 07:27:31;;;;;;;13.90;8.35;;;19.40;99.90;;;;;;5022896;28;20059;-75
2022/05/18 07:29:56;;;;;;;13.48;8.18;;;19.40;99.90;;;;;;5025163;28;20281;-74
2022/05/18 07:32:22;;;;;;;11.65;7.68;;;19.50;99.90;;;;;;5022549;28;20387;-74
2022/05/18 07:34:48;;;;;;;10.40;6.43;;;19.50;99.90;;;;;;5023503;28;20040;-75
2022/05/18 07:37:15;;;;;;;10.25;7.03;;;19.60;99.90;;;;;;5026531;28;20069;-74
2022/05/18 07:39:41;;;;;;;17.33;7.53;;;19.70;99.90;;;;;;5041915;28;20483;-74
2022/05/18 07:42:08;;;;;;;11.40;6.85;;;19.80;99.90;;;;;;5039583;28;20049;-74
2022/05/18 07:44:35;;;;;;;9.02;6.18;;;19.90;99.90;;;;;;5035258;28;20052;-74
2022/05/18 07:47:03;;;;;;;11.32;5.35;;;19.90;99.90;;;;;;5039008;28;20397;-74
2022/05/18 07:49:33;;;;;;;10.00;5.38;;;20.00;99.90;;;;;;5022817;28;20041;-73
2022/05/18 07:51:59;;;;;;;9.43;6.18;;;20.10;99.90;;;;;;5036537;28;20412;-73
2022/05/18 07:54:24;;;;;;;8.95;4.95;;;20.30;99.90;;;;;;5027868;28;20102;-74
2022/05/18 07:56:50;;;;;;;25.77;6.45;;;20.30;99.90;;;;;;5022814;28;20039;-74
2022/05/18 07:59:15;;;;;;;8.15;4.80;;;20.50;99.90;;;;;;5030441;28;20048;-73
2022/05/18 08:01:42;;;;;;;7.30;4.45;;;20.50;99.90;;;;;;5023464;28;20044;-73
2022/05/18 08:04:08;;;;;;;8.93;4.57;;;20.60;99.90;;;;;;5048337;28;20481;-73
2022/05/18 08:06:33;;;;;;;8.95;3.97;;;20.80;99.90;;;;;;5021723;28;20041;-73
2022/05/18 08:08:59;;;;;;;8.63;4.13;;;20.90;99.90;;;;;;5024612;28;20065;-73
2022/05/18 08:16:53;;;;;;;12.02;4.93;;;21.30;99.90;;;;;;5019106;28;19925;-78
2022/05/18 08:19:19;;;;;;;9.48;5.10;;;21.40;99.90;;;;;;5020039;28;20428;-77
2022/05/18 08:21:47;;;;;;;8.02;5.50;;;21.40;99.90;;;;;;5021870;28;20041;-79
2022/05/18 08:24:13;;;;;;;8.50;5.00;;;21.40;99.90;;;;;;5036933;28;20124;-76
2022/05/18 08:26:38;;;;;;;10.52;4.22;;;21.50;99.90;;;;;;5039976;28;20037;-74
2022/05/18 08:29:05;;;;;;;12.48;5.95;;;21.70;99.90;;;;;;5040848;28;20048;-72
2022/05/18 08:31:31;;;;;;;9.35;5.78;;;21.80;99.90;;;;;;5040002;28;20045;-74
2022/05/18 08:33:57;;;;;;;5.85;5.00;;;21.90;99.90;;;;;;5019569;28;20045;-73
2022/05/18 08:36:25;;;;;;;7.78;4.80;;;22.00;99.90;;;;;;5040137;28;20404;-74
2022/05/18 08:38:51;;;;;;;8.73;5.90;;;22.10;99.90;;;;;;5036334;28;20033;-77
2022/05/18 08:41:22;;;;;;;7.28;5.70;;;22.10;99.90;;;;;;5023883;28;20137;-75
2022/05/18 08:43:52;;;;;;;9.88;5.78;;;22.10;99.90;;;;;;5025506;28;20515;-75
2022/05/18 08:46:45;;;;;;;7.03;5.20;;;22.20;99.90;;;;;;5029877;28;20059;-74
2022/05/18 08:49:18;;;;;;;14.80;6.47;;;22.30;99.90;;;;;;5041076;28;20086;-80
2022/05/18 08:51:48;;;;;;;7.28;5.95;;;22.40;99.90;;;;;;5018001;28;20423;-82
2022/05/18 08:54:43;;;;;;;10.98;6.65;;;22.30;99.90;;;;;;5023351;28;20051;-80
2022/05/18 08:57:33;;;;;;;11.27;7.50;;;22.50;99.90;;;;;;5045373;28;20041;-83
2022/05/18 09:00:18;;;;;;;9.75;6.40;;;22.70;99.90;;;;;;5040073;28;20118;-82
2022/05/18 09:02:46;;;;;;;11.75;6.03;;;22.70;99.90;;;;;;5019996;28;20063;-82
2022/05/18 09:05:31;;;;;;;10.18;6.00;;;23.10;99.90;;;;;;5018555;28;20049;-81
2022/05/18 09:08:24;;;;;;;14.40;6.18;;;22.90;99.90;;;;;;5047445;28;20048;-81
2022/05/18 09:10:53;;;;;;;9.02;6.68;;;23.00;99.90;;;;;;5037470;28;20141;-82
2022/05/18 09:13:20;;;;;;;13.18;7.22;;;23.20;99.90;;;;;;5018753;28;20045;-82
2022/05/18 09:16:13;;;;;;;9.63;6.28;;;23.00;99.90;;;;;;5039181;28;20120;-82
2022/05/18 09:18:59;;;;;;;12.00;6.65;;;23.10;99.90;;;;;;5016301;28;20049;-82
2022/05/18 09:21:42;;;;;;;10.07;5.13;;;23.20;99.90;;;;;;5022276;28;20056;-81
2022/05/18 09:24:26;;;;;;;9.50;5.40;;;23.30;99.90;;;;;;5036811;28;20044;-82
2022/05/18 09:27:09;;;;;;;8.15;4.93;;;23.40;99.90;;;;;;5039324;28;20071;-80
2022/05/18 09:30:02;;;;;;;10.90;6.60;;;23.40;99.90;;;;;;5022205;28;20075;-81
2022/05/18 09:33:02;;;;;;;17.38;6.32;;;23.60;99.90;;;;;;5025813;28;20052;-82
2022/05/18 09:35:55;;;;;;;10.18;6.13;;;23.70;99.90;;;;;;5043618;28;20045;-82
2022/05/18 09:38:50;;;;;;;13.93;8.07;;;23.70;99.90;;;;;;5042658;28;20045;-82
2022/05/18 09:41:20;;;;;;;11.05;7.28;;;23.70;99.90;;;;;;5015427;28;20299;-80
2022/05/18 09:44:07;;;;;;;16.20;7.63;;;23.80;99.90;;;;;;5038652;28;20705;-82
2022/05/18 09:46:34;;;;;;;8.82;6.95;;;23.90;99.90;;;;;;5039563;28;20049;-82
2022/05/18 09:49:26;;;;;;;13.43;6.43;;;23.90;99.90;;;;;;5044146;28;20049;-82
2022/05/18 09:51:53;;;;;;;11.88;7.57;;;23.80;99.90;;;;;;5047524;28;20056;-81
2022/05/18 09:54:19;;;;;;;8.35;6.00;;;23.90;99.90;;;;;;5004956;28;20037;-79
2022/05/18 09:57:16;;;;;;;15.75;7.22;;;24.00;99.90;;;;;;5004451;28;20124;-81
2022/05/18 09:59:45;;;;;;;15.57;7.82;;;24.10;99.90;;;;;;5013138;28;20049;-82
2022/05/18 10:07:49;;;;;;;14.90;8.77;;;24.40;99.90;;;;;;5020660;28;20131;-82
2022/05/18 10:10:33;;;;;;;11.90;7.65;;;24.40;99.90;;;;;;5018648;28;20247;-81
2022/05/18 10:13:03;;;;;;;13.32;8.02;;;24.50;99.90;;;;;;5022689;28;20063;-82
2022/05/18 10:15:44;;;;;;;14.20;7.78;;;24.50;99.90;;;;;;5004735;28;20095;-81
2022/05/18 10:18:28;;;;;;;10.05;8.63;;;24.50;99.90;;;;;;5016969;28;20056;-81
2022/05/18 10:21:20;;;;;;;10.85;8.52;;;24.50;99.90;;;;;;5019641;28;20049;-81
2022/05/18 10:23:51;;;;;;;15.38;7.72;;;24.60;99.90;;;;;;5019168;28;20132;-82
2022/05/18 10:26:28;;;;;;;11.10;8.70;;;25.40;99.90;;;;;;5038841;28;20479;-79
2022/05/18 10:28:58;;;;;;;11.73;8.85;;;24.90;99.90;;;;;;5026008;28;20049;-80
2022/05/18 10:31:46;;;;;;;17.33;10.23;;;24.80;99.90;;;;;;5018757;28;20065;-81
2022/05/18 10:34:21;;;;;;;15.52;9.88;;;24.80;99.90;;;;;;5017861;28;20052;-81
2022/05/18 10:36:55;;;;;;;12.98;10.52;;;24.90;99.90;;;;;;5002376;28;20045;-82
2022/05/18 10:39:44;;;;;;;16.67;11.60;;;24.90;99.90;;;;;;5022070;28;20037;-81
2022/05/18 10:42:23;;;;;;;13.82;10.82;;;25.10;99.90;;;;;;5004590;28;20052;-81
2022/05/18 10:44:50;;;;;;;17.83;12.98;;;25.10;99.90;;;;;;5023871;28;20052;-81
2022/05/18 10:47:19;;;;;;;19.98;12.20;;;25.20;99.90;;;;;;5021887;28;20030;-81
2022/05/18 10:49:45;;;;;;;14.20;10.77;;;25.00;99.90;;;;;;5040287;28;20041;-81
2022/05/18 10:52:11;;;;;;;13.98;11.13;;;25.00;99.90;;;;;;5042993;28;20052;-80
2022/05/18 10:54:37;;;;;;;14.25;10.05;;;25.10;99.90;;;;;;5024489;28;20045;-81
2022/05/18 10:57:16;;;;;;;14.52;10.68;;;25.20;99.90;;;;;;5021706;28;20056;-81
2022/05/18 10:59:56;;;;;;;12.88;11.57;;;25.30;99.90;;;;;;5028753;28;20500;-80
2022/05/18 11:02:58;;;;;;;16.95;11.10;;;25.30;99.90;;;;;;5039678;28;20072;-76
2022/05/18 11:05:37;;;;;;;15.35;13.13;;;25.30;99.90;;;;;;5038595;28;20068;-77
2022/05/18 11:08:07;;;;;;;15.18;11.65;;;25.40;99.90;;;;;;5039877;28;20095;-77
2022/05/18 11:10:45;;;;;;;19.13;12.40;;;25.40;99.90;;;;;;5042009;28;20145;-77
2022/05/18 11:13:19;;;;;;;16.45;10.68;;;25.50;99.90;;;;;;5007604;28;20033;-74
2022/05/18 11:15:50;;;;;;;13.55;8.65;;;25.50;99.90;;;;;;5042327;28;20119;-75
2022/05/18 11:18:24;;;;;;;16.23;10.88;;;25.70;99.90;;;;;;5026629;28;20164;-74
2022/05/18 11:21:35;;;;;;;15.60;10.13;;;25.70;99.90;;;;;;5045208;28;20048;-78
2022/05/18 11:24:40;;;;;;;20.80;11.50;;;25.90;99.90;;;;;;4990862;28;20111;-74
2022/05/18 11:27:41;;;;;;;19.33;11.63;;;26.00;99.90;;;;;;5041393;28;20484;-77
2022/05/18 11:30:42;;;;;;;26.77;11.80;;;25.90;99.90;;;;;;4982615;28;20570;-76
2022/05/18 11:33:36;;;;;;;14.40;11.27;;;25.90;99.90;;;;;;4997610;28;20056;-84
2022/05/18 11:36:19;;;;;;;14.35;9.32;;;25.90;99.90;;;;;;5017358;28;20053;-81
2022/05/18 11:39:03;;;;;;;14.33;11.73;;;26.00;99.90;;;;;;5028104;28;20120;-82
2022/05/18 11:41:47;;;;;;;14.23;10.95;;;25.70;99.90;;;;;;5041207;28;20279;-85
2022/05/18 11:44:46;;;;;;;22.38;10.70;;;26.00;99.90;;;;;;5031165;28;20134;-83
2022/05/18 11:47:15;;;;;;;16.55;10.55;;;26.00;99.90;;;;;;5024353;28;20057;-82
2022/05/18 11:50:00;;;;;;;17.50;11.45;;;26.00;99.90;;;;;;5047070;28;20041;-81
2022/05/18 11:52:59;;;;;;;22.60;10.77;;;26.00;99.90;;;;;;5028756;28;20048;-81
2022/05/18 11:56:09;;;;;;;16.00;11.13;;;26.20;99.90;;;;;;5020905;28;20061;-73
2022/05/18 11:59:03;;;;;;;16.02;8.68;;;26.40;99.90;;;;;;4992119;28;20151;-73
2022/05/18 12:02:14;;;;;;;12.45;10.27;;;26.50;99.90;;;;;;5038777;28;20042;-74
2022/05/18 12:05:06;;;;;;;21.95;10.57;;;26.70;99.70;;;;;;5002513;28;20559;-74
2022/05/18 12:07:55;;;;;;;17.30;9.02;;;26.70;99.90;;;;;;5041238;28;20094;-74
2022/05/18 12:10:26;;;;;;;12.40;9.48;;;26.60;99.90;;;;;;5023938;28;20481;-74
2022/05/18 12:12:59;;;;;;;15.98;10.13;;;26.70;99.30;;;;;;5041606;28;20094;-75
2022/05/18 12:15:47;;;;;;;18.02;14.80;;;26.60;99.40;;;;;;5040128;28;20092;-76
2022/05/18 12:18:15;;;;;;;14.30;11.15;;;26.30;99.10;;;;;;5019456;28;20401;-76
2022/05/18 12:21:01;;;;;;;12.63;11.18;;;26.30;99.90;;;;;;5024021;28;20074;-76
2022/05/18 12:23:32;;;;;;;17.45;10.45;;;26.60;99.90;;;;;;5020889;28;20088;-75
2022/05/18 12:25:58;;;;;;;10.73;9.35;;;26.80;99.90;;;;;;5020334;28;20075;-74
2022/05/18 12:28:26;;;;;;;15.18;9.13;;;26.60;99.90;;;;;;5024925;28;20406;-79
2022/05/18 12:30:54;;;;;;;11.27;10.10;;;26.50;99.90;;;;;;5023037;28;20124;-81
2022/05/18 12:33:21;;;;;;;13.73;8.68;;;26.50;99.90;;;;;;5040778;28;20500;-81
2022/05/18 12:36:15;;;;;;;9.98;8.93;;;26.40;99.90;;;;;;4315171;28;10000727;-81
2022/05/18 12:39:12;;;;;;;13.03;9.73;;;26.40;99.90;;;;;;5027789;28;20073;-81
2022/05/18 12:41:44;;;;;;;10.32;9.07;;;26.30;99.90;;;;;;5040724;28;20314;-82
2022/05/18 12:44:21;;;;;;;13.75;8.68;;;26.20;99.90;;;;;;5024770;28;20128;-82
2022/05/18 12:47:02;;;;;;;16.17;11.55;;;26.20;99.90;;;;;;5045367;28;20041;-83
2022/05/18 12:49:37;;;;;;;19.35;11.02;;;26.30;99.90;;;;;;5024564;28;20033;-82
2022/05/18 12:52:16;;;;;;;17.50;11.40;;;26.40;99.90;;;;;;5043711;28;20037;-83
2022/05/18 12:54:44;;;;;;;21.25;11.25;;;26.30;99.90;;;;;;5027110;28;20073;-82
2022/05/18 12:57:18;;;;;;;16.10;12.18;;;26.30;99.90;;;;;;5008724;28;20621;-82
2022/05/18 12:59:46;;;;;;;13.73;10.65;;;26.30;99.90;;;;;;5010072;28;20501;-83
2022/05/18 13:02:36;;;;;;;16.35;11.88;;;26.20;99.90;;;;;;5026552;28;20041;-83
2022/05/18 13:05:31;;;;;;;18.05;12.57;;;26.10;99.90;;;;;;5024829;28;20437;-82
2022/05/18 13:08:10;;;;;;;16.63;13.73;;;26.00;99.90;;;;;;5017520;28;20045;-81
2022/05/18 13:10:38;;;;;;;20.25;13.77;;;25.80;99.90;;;;;;5024160;28;20064;-82
2022/05/18 13:13:24;;;;;;;16.55;12.50;;;25.60;99.90;;;;;;5010983;28;20049;-81
2022/05/18 13:15:58;;;;;;;16.13;11.55;;;25.70;99.90;;;;;;5003309;28;20050;-81
2022/05/18 13:18:35;;;;;;;16.92;11.82;;;25.80;99.90;;;;;;5016210;28;20064;-81